sensor_id;sensor_type;location;lat;lon;timestamp;pressure;altitude;pressure_sealevel;temperature;humidity
12799;BME280;19250;42.646;26.980;2023-03-26T00:01:35;98177.28;;;14.35;100.00
12799;BME280;19250;42.646;26.980;2023-03-26T00:04:04;98186.03;;;14.76;100.00
12799;BME280;19250;42.646;26.980;2023-03-26T00:06:31;98188.50;;;15.23;100.00
12799;BME280;19250;42.646;26.980;2023-03-26T00:09:00;98200.91;;;15.24;100.00
12799;BME280;19250;42.646;26.980;2023-03-26T00:11:28;98201.31;;;15.02;100.00
12799;BME280;19250;42.646;26.980;2023-03-26T00:13:55;98192.44;;;15.01;100.00
12799;BME280;19250;42.646;26.980;2023-03-26T00:16:23;98196.97;;;14.61;100.00
12799;BME280;19250;42.646;26.980;2023-03-26T00:18:50;98188.06;;;14.74;100.00
12799;BME280;19250;42.646;26.980;2023-03-26T00:21:19;98189.06;;;14.53;100.00
12799;BME280;19250;42.646;26.980;2023-03-26T00:23:46;98194.47;;;14.60;100.00
12799;BME280;19250;42.646;26.980;2023-03-26T00:26:14;98185.41;;;15.00;100.00
12799;BME280;19250;42.646;26.980;2023-03-26T00:28:42;98183.53;;;15.14;100.00
12799;BME280;19250;42.646;26.980;2023-03-26T00:31:10;98182.06;;;15.64;100.00
12799;BME280;19250;42.646;26.980;2023-03-26T00:33:37;98190.28;;;15.82;100.00
12799;BME280;19250;42.646;26.980;2023-03-26T00:36:05;98190.28;;;15.82;100.00
12799;BME280;19250;42.646;26.980;2023-03-26T00:38:35;98192.94;;;15.95;100.00
12799;BME280;19250;42.646;26.980;2023-03-26T00:41:03;98179.34;;;15.77;100.00
12799;BME280;19250;42.646;26.980;2023-03-26T00:43:31;98180.66;;;15.22;100.00
12799;BME280;19250;42.646;26.980;2023-03-26T00:46:02;98170.56;;;14.91;100.00
12799;BME280;19250;42.646;26.980;2023-03-26T00:48:30;98171.94;;;14.41;100.00
12799;BME280;19250;42.646;26.980;2023-03-26T00:50:58;98159.97;;;14.50;100.00
12799;BME280;19250;42.646;26.980;2023-03-26T00:53:25;98148.22;;;14.71;100.00
12799;BME280;19250;42.646;26.980;2023-03-26T00:55:54;98159.38;;;14.55;100.00
12799;BME280;19250;42.646;26.980;2023-03-26T00:58:24;98169.47;;;14.53;100.00
12799;BME280;19250;42.646;26.980;2023-03-26T01:00:52;98166.25;;;14.03;100.00
12799;BME280;19250;42.646;26.980;2023-03-26T01:03:22;98188.13;;;14.20;100.00
12799;BME280;19250;42.646;26.980;2023-03-26T01:05:49;98179.91;;;14.28;100.00
12799;BME280;19250;42.646;26.980;2023-03-26T01:08:22;98185.69;;;14.32;100.00
12799;BME280;19250;42.646;26.980;2023-03-26T01:10:50;98187.16;;;14.28;100.00
12799;BME280;19250;42.646;26.980;2023-03-26T01:13:20;98174.28;;;14.03;100.00
12799;BME280;19250;42.646;26.980;2023-03-26T01:15:48;98180.94;;;13.73;100.00
12799;BME280;19250;42.646;26.980;2023-03-26T01:18:18;98182.91;;;13.99;100.00
12799;BME280;19250;42.646;26.980;2023-03-26T01:20:47;98178.47;;;14.32;100.00
12799;BME280;19250;42.646;26.980;2023-03-26T01:23:16;98186.22;;;14.55;100.00
12799;BME280;19250;42.646;26.980;2023-03-26T01:25:47;98183.94;;;14.78;100.00
12799;BME280;19250;42.646;26.980;2023-03-26T01:28:19;98190.94;;;14.53;100.00
12799;BME280;19250;42.646;26.980;2023-03-26T01:30:47;98190.53;;;14.56;100.00
12799;BME280;19250;42.646;26.980;2023-03-26T01:33:19;98189.06;;;14.53;100.00
12799;BME280;19250;42.646;26.980;2023-03-26T01:35:55;98194.91;;;14.96;100.00
12799;BME280;19250;42.646;26.980;2023-03-26T01:38:27;98196.78;;;14.83;100.00
12799;BME280;19250;42.646;26.980;2023-03-26T01:41:02;98187.84;;;14.49;100.00
12799;BME280;19250;42.646;26.980;2023-03-26T01:43:31;98188.47;;;14.58;100.00
12799;BME280;19250;42.646;26.980;2023-03-26T01:46:00;98188.72;;;14.83;100.00
12799;BME280;19250;42.646;26.980;2023-03-26T01:48:30;98189.97;;;15.13;100.00
12799;BME280;19250;42.646;26.980;2023-03-26T01:50:57;98192.44;;;15.08;100.00
12799;BME280;19250;42.646;26.980;2023-03-26T01:53:24;98185.81;;;14.91;100.00
12799;BME280;19250;42.646;26.980;2023-03-26T01:55:53;98195.31;;;14.87;100.00
12799;BME280;19250;42.646;26.980;2023-03-26T01:58:26;98185.69;;;14.32;100.00
12799;BME280;19250;42.646;26.980;2023-03-26T02:00:56;98186.22;;;14.68;100.00
12799;BME280;19250;42.646;26.980;2023-03-26T02:03:27;98186.84;;;14.77;100.00
12799;BME280;19250;42.646;26.980;2023-03-26T02:05:56;98181.66;;;14.62;100.00
12799;BME280;19250;42.646;26.980;2023-03-26T02:08:28;98174.88;;;14.79;100.00
12799;BME280;19250;42.646;26.980;2023-03-26T02:11:00;98175.94;;;15.04;100.00
12799;BME280;19250;42.646;26.980;2023-03-26T02:13:30;98175.50;;;15.07;100.00
12799;BME280;19250;42.646;26.980;2023-03-26T02:15:58;98168.47;;;14.80;100.00
12799;BME280;19250;42.646;26.980;2023-03-26T02:18:25;98172.00;;;15.00;100.00
12799;BME280;19250;42.646;26.980;2023-03-26T02:21:00;98171.75;;;15.35;100.00
12799;BME280;19250;42.646;26.980;2023-03-26T02:23:27;98173.00;;;15.25;100.00
12799;BME280;19250;42.646;26.980;2023-03-26T02:25:54;98182.31;;;14.64;100.00
12799;BME280;19250;42.646;26.980;2023-03-26T02:28:21;98171.78;;;14.95;100.00
12799;BME280;19250;42.646;26.980;2023-03-26T02:30:49;98185.06;;;14.30;100.00
12799;BME280;19250;42.646;26.980;2023-03-26T02:33:16;98181.41;;;14.37;100.00
12799;BME280;19250;42.646;26.980;2023-03-26T02:35:43;98188.03;;;14.41;100.00
12799;BME280;19250;42.646;26.980;2023-03-26T02:38:10;98184.47;;;14.28;100.00
12799;BME280;19250;42.646;26.980;2023-03-26T02:40:39;98188.66;;;14.50;100.00
12799;BME280;19250;42.646;26.980;2023-03-26T02:43:06;98194.91;;;14.70;100.00
12799;BME280;19250;42.646;26.980;2023-03-26T02:45:33;98194.91;;;14.77;100.00
12799;BME280;19250;42.646;26.980;2023-03-26T02:48:01;98185.81;;;14.84;100.00
12799;BME280;19250;42.646;26.980;2023-03-26T02:50:28;98181.91;;;15.00;100.00
12799;BME280;19250;42.646;26.980;2023-03-26T02:53:01;98197.16;;;15.32;100.00
12799;BME280;19250;42.646;26.980;2023-03-26T02:55:28;98189.13;;;15.06;100.00
12799;BME280;19250;42.646;26.980;2023-03-26T02:57:55;98183.75;;;15.19;100.00
12799;BME280;19250;42.646;26.980;2023-03-26T03:00:22;98185.63;;;15.25;100.00
12799;BME280;19250;42.646;26.980;2023-03-26T03:02:50;98186.22;;;15.14;100.00
12799;BME280;19250;42.646;26.980;2023-03-26T03:05:18;98183.75;;;15.12;100.00
12799;BME280;19250;42.646;26.980;2023-03-26T03:07:45;98184.97;;;15.23;100.00
12799;BME280;19250;42.646;26.980;2023-03-26T03:10:12;98189.75;;;15.14;100.00
12799;BME280;19250;42.646;26.980;2023-03-26T03:12:39;98189.13;;;15.25;100.00
12799;BME280;19250;42.646;26.980;2023-03-26T03:15:07;98192.41;;;15.41;100.00
12799;BME280;19250;42.646;26.980;2023-03-26T03:17:34;98195.13;;;15.27;100.00
12799;BME280;19250;42.646;26.980;2023-03-26T03:20:01;98190.16;;;15.18;100.00
12799;BME280;19250;42.646;26.980;2023-03-26T03:22:30;98195.31;;;14.87;100.00
12799;BME280;19250;42.646;26.980;2023-03-26T03:24:57;98202.91;;;14.57;100.00
12799;BME280;19250;42.646;26.980;2023-03-26T03:27:24;98211.63;;;14.79;100.00
12799;BME280;19250;42.646;26.980;2023-03-26T03:29:51;98204.00;;;14.82;100.00
12799;BME280;19250;42.646;26.980;2023-03-26T03:32:20;98209.97;;;14.84;100.00
12799;BME280;19250;42.646;26.980;2023-03-26T03:34:47;98218.03;;;14.84;100.00
12799;BME280;19250;42.646;26.980;2023-03-26T03:37:15;98216.34;;;14.57;100.00
12799;BME280;19250;42.646;26.980;2023-03-26T03:39:43;98227.69;;;14.65;100.00
12799;BME280;19250;42.646;26.980;2023-03-26T03:42:10;98238.78;;;14.43;100.00
12799;BME280;19250;42.646;26.980;2023-03-26T03:44:37;98246.47;;;14.65;100.00
12799;BME280;19250;42.646;26.980;2023-03-26T03:47:04;98262.00;;;14.29;100.00
12799;BME280;19250;42.646;26.980;2023-03-26T03:49:31;98281.53;;;14.51;100.00
12799;BME280;19250;42.646;26.980;2023-03-26T03:51:58;98288.41;;;14.73;100.00
12799;BME280;19250;42.646;26.980;2023-03-26T03:54:25;98280.38;;;14.80;100.00
12799;BME280;19250;42.646;26.980;2023-03-26T03:56:54;98281.47;;;14.38;100.00
12799;BME280;19250;42.646;26.980;2023-03-26T03:59:21;98278.59;;;13.71;100.00
12799;BME280;19250;42.646;26.980;2023-03-26T04:01:48;98282.72;;;13.39;100.00
12799;BME280;19250;42.646;26.980;2023-03-26T04:04:16;98276.06;;;13.35;100.00
12799;BME280;19250;42.646;26.980;2023-03-26T04:06:42;98276.31;;;12.97;100.00
12799;BME280;19250;42.646;26.980;2023-03-26T04:09:09;98266.69;;;13.03;100.00
12799;BME280;19250;42.646;26.980;2023-03-26T04:11:36;98274.34;;;13.27;100.00
12799;BME280;19250;42.646;26.980;2023-03-26T04:14:05;98276.53;;;13.38;100.00
12799;BME280;19250;42.646;26.980;2023-03-26T04:16:31;98276.56;;;13.17;100.00
12799;BME280;19250;42.646;26.980;2023-03-26T04:18:58;98281.28;;;12.79;100.00
12799;BME280;19250;42.646;26.980;2023-03-26T04:21:26;98290.22;;;12.86;100.00
12799;BME280;19250;42.646;26.980;2023-03-26T04:23:54;98298.69;;;12.54;100.00
12799;BME280;19250;42.646;26.980;2023-03-26T04:26:21;98295.81;;;12.70;100.00
12799;BME280;19250;42.646;26.980;2023-03-26T04:28:49;98296.41;;;12.51;100.00
12799;BME280;19250;42.646;26.980;2023-03-26T04:31:19;98294.91;;;12.63;100.00
12799;BME280;19250;42.646;26.980;2023-03-26T04:33:48;98299.16;;;12.57;100.00
12799;BME280;19250;42.646;26.980;2023-03-26T04:36:18;98305.22;;;12.66;100.00
12799;BME280;19250;42.646;26.980;2023-03-26T04:38:48;98310.44;;;12.53;100.00
12799;BME280;19250;42.646;26.980;2023-03-26T04:41:16;98234.00;;;12.08;100.00
12799;BME280;19250;42.646;26.980;2023-03-26T04:43:43;98313.63;;;12.63;100.00
12799;BME280;19250;42.646;26.980;2023-03-26T04:46:14;98305.59;;;12.63;100.00
12799;BME280;19250;42.646;26.980;2023-03-26T04:48:44;98281.47;;;13.14;100.00
12799;BME280;19250;42.646;26.980;2023-03-26T04:51:11;98249.19;;;13.49;100.00
12799;BME280;19250;42.646;26.980;2023-03-26T04:53:42;98208.44;;;13.54;100.00
12799;BME280;19250;42.646;26.980;2023-03-26T04:56:11;98219.78;;;13.90;100.00
12799;BME280;19250;42.646;26.980;2023-03-26T04:58:39;98292.69;;;13.24;100.00
12799;BME280;19250;42.646;26.980;2023-03-26T05:01:07;98308.69;;;13.17;100.00
12799;BME280;19250;42.646;26.980;2023-03-26T05:03:35;98310.56;;;13.02;100.00
12799;BME280;19250;42.646;26.980;2023-03-26T05:06:05;98304.19;;;13.24;100.00
12799;BME280;19250;42.646;26.980;2023-03-26T05:08:33;98304.91;;;13.33;100.00
12799;BME280;19250;42.646;26.980;2023-03-26T05:11:00;98301.47;;;13.39;100.00
12799;BME280;19250;42.646;26.980;2023-03-26T05:13:27;98295.09;;;13.19;100.00
12799;BME280;19250;42.646;26.980;2023-03-26T05:15:54;98307.63;;;13.39;100.00
12799;BME280;19250;42.646;26.980;2023-03-26T05:18:21;98312.56;;;13.36;100.00
12799;BME280;19250;42.646;26.980;2023-03-26T05:20:48;98305.34;;;13.64;100.00
12799;BME280;19250;42.646;26.980;2023-03-26T05:23:16;98313.72;;;13.82;100.00
12799;BME280;19250;42.646;26.980;2023-03-26T05:25:43;98307.28;;;13.49;100.00
12799;BME280;19250;42.646;26.980;2023-03-26T05:28:11;98311.91;;;13.34;100.00
12799;BME280;19250;42.646;26.980;2023-03-26T05:30:38;98310.38;;;13.25;100.00
12799;BME280;19250;42.646;26.980;2023-03-26T05:33:05;98307.63;;;13.39;100.00
12799;BME280;19250;42.646;26.980;2023-03-26T05:35:32;98312.16;;;13.39;100.00
12799;BME280;19250;42.646;26.980;2023-03-26T05:37:58;98318.72;;;13.64;100.00
12799;BME280;19250;42.646;26.980;2023-03-26T05:40:27;98304.59;;;13.77;100.00
12799;BME280;19250;42.646;26.980;2023-03-26T05:42:54;98311.34;;;13.66;100.00
12799;BME280;19250;42.646;26.980;2023-03-26T05:45:21;98314.09;;;13.79;100.00
12799;BME280;19250;42.646;26.980;2023-03-26T05:47:48;98321.72;;;14.03;100.00
12799;BME280;19250;42.646;26.980;2023-03-26T05:50:15;98312.53;;;13.91;100.00
12799;BME280;19250;42.646;26.980;2023-03-26T05:52:42;98318.91;;;14.18;100.00
12799;BME280;19250;42.646;26.980;2023-03-26T05:55:10;98326.81;;;13.98;100.00
12799;BME280;19250;42.646;26.980;2023-03-26T05:57:38;98323.34;;;14.04;100.00
12799;BME280;19250;42.646;26.980;2023-03-26T06:00:07;98332.81;;;14.00;100.00
12799;BME280;19250;42.646;26.980;2023-03-26T06:02:36;98324.63;;;13.81;100.00
12799;BME280;19250;42.646;26.980;2023-03-26T06:05:03;98328.97;;;14.09;100.00
12799;BME280;19250;42.646;26.980;2023-03-26T06:07:30;98334.63;;;14.28;100.00
12799;BME280;19250;42.646;26.980;2023-03-26T06:09:58;98331.09;;;14.61;100.00
12799;BME280;19250;42.646;26.980;2023-03-26T06:12:25;98340.06;;;14.88;100.00
12799;BME280;19250;42.646;26.980;2023-03-26T06:14:53;98338.84;;;14.97;100.00
12799;BME280;19250;42.646;26.980;2023-03-26T06:17:20;98346.94;;;15.17;100.00
12799;BME280;19250;42.646;26.980;2023-03-26T06:19:47;98346.78;;;15.45;100.00
12799;BME280;19250;42.646;26.980;2023-03-26T06:22:13;98347.88;;;15.50;100.00
12799;BME280;19250;42.646;26.980;2023-03-26T06:24:41;98351.16;;;15.72;100.00
12799;BME280;19250;42.646;26.980;2023-03-26T06:27:08;98345.97;;;15.90;100.00
12799;BME280;19250;42.646;26.980;2023-03-26T06:29:35;98346.59;;;15.92;99.59
12799;BME280;19250;42.646;26.980;2023-03-26T06:32:04;98351.84;;;16.58;98.39
12799;BME280;19250;42.646;26.980;2023-03-26T06:34:31;98358.81;;;16.78;95.61
12799;BME280;19250;42.646;26.980;2023-03-26T06:36:58;98364.16;;;16.85;93.03
12799;BME280;19250;42.646;26.980;2023-03-26T06:39:25;98369.06;;;16.57;93.24
12799;BME280;19250;42.646;26.980;2023-03-26T06:41:52;98364.78;;;16.16;97.30
12799;BME280;19250;42.646;26.980;2023-03-26T06:44:18;98373.91;;;15.76;97.08
12799;BME280;19250;42.646;26.980;2023-03-26T06:46:46;98361.50;;;15.95;100.00
12799;BME280;19250;42.646;26.980;2023-03-26T06:49:14;98368.28;;;16.17;100.00
12799;BME280;19250;42.646;26.980;2023-03-26T06:51:41;98361.91;;;16.05;98.38
12799;BME280;19250;42.646;26.980;2023-03-26T06:54:08;98362.66;;;16.45;91.89
12799;BME280;19250;42.646;26.980;2023-03-26T06:56:35;98322.47;;;16.56;91.98
12799;BME280;19250;42.646;26.980;2023-03-26T06:59:02;98358.66;;;17.42;89.73
12799;BME280;19250;42.646;26.980;2023-03-26T07:01:29;98358.81;;;18.04;86.24
12799;BME280;19250;42.646;26.980;2023-03-26T07:03:56;98363.06;;;18.36;78.60
12799;BME280;19250;42.646;26.980;2023-03-26T07:06:24;98359.44;;;17.18;75.09
12799;BME280;19250;42.646;26.980;2023-03-26T07:08:51;98362.72;;;17.27;75.89
12799;BME280;19250;42.646;26.980;2023-03-26T07:11:19;98351.94;;;16.89;77.06
12799;BME280;19250;42.646;26.980;2023-03-26T07:13:49;98354.25;;;17.55;75.83
12799;BME280;19250;42.646;26.980;2023-03-26T07:16:16;98352.88;;;17.39;74.00
12799;BME280;19250;42.646;26.980;2023-03-26T07:18:43;98355.69;;;17.82;74.68
12799;BME280;19250;42.646;26.980;2023-03-26T07:21:11;98358.06;;;17.72;69.34
12799;BME280;19250;42.646;26.980;2023-03-26T07:23:39;98355.09;;;18.23;70.81
12799;BME280;19250;42.646;26.980;2023-03-26T07:26:12;98355.47;;;18.44;67.74
12799;BME280;19250;42.646;26.980;2023-03-26T07:28:41;98358.25;;;19.11;64.26
12799;BME280;19250;42.646;26.980;2023-03-26T07:31:14;98361.13;;;19.27;62.67
12799;BME280;19250;42.646;26.980;2023-03-26T07:33:46;98355.97;;;19.67;60.95
12799;BME280;19250;42.646;26.980;2023-03-26T07:36:20;98362.38;;;19.84;56.58
12799;BME280;19250;42.646;26.980;2023-03-26T07:38:58;98367.50;;;19.63;51.96
12799;BME280;19250;42.646;26.980;2023-03-26T07:41:33;98366.28;;;19.17;53.05
12799;BME280;19250;42.646;26.980;2023-03-26T07:44:11;98362.09;;;18.30;54.74
12799;BME280;19250;42.646;26.980;2023-03-26T07:46:46;98374.84;;;18.78;55.55
12799;BME280;19250;42.646;26.980;2023-03-26T07:49:13;98378.78;;;18.82;51.19
12799;BME280;19250;42.646;26.980;2023-03-26T07:51:42;98376.31;;;18.80;55.10
12799;BME280;19250;42.646;26.980;2023-03-26T07:54:11;98378.78;;;19.12;55.29
12799;BME280;19250;42.646;26.980;2023-03-26T07:56:38;98383.28;;;18.70;52.99
12799;BME280;19250;42.646;26.980;2023-03-26T07:59:14;98384.16;;;19.00;54.57
12799;BME280;19250;42.646;26.980;2023-03-26T08:01:49;98379.66;;;19.24;51.29
12799;BME280;19250;42.646;26.980;2023-03-26T08:04:23;98381.16;;;19.68;51.55
12799;BME280;19250;42.646;26.980;2023-03-26T08:06:53;98374.16;;;19.48;52.41
12799;BME280;19250;42.646;26.980;2023-03-26T08:09:25;98375.72;;;19.26;51.65
12799;BME280;19250;42.646;26.980;2023-03-26T08:11:56;98384.53;;;19.33;48.64
12799;BME280;19250;42.646;26.980;2023-03-26T08:14:26;98385.03;;;19.12;52.38
12799;BME280;19250;42.646;26.980;2023-03-26T08:16:59;98385.03;;;19.12;51.56
12799;BME280;19250;42.646;26.980;2023-03-26T08:19:31;98382.63;;;19.22;52.50
12799;BME280;19250;42.646;26.980;2023-03-26T08:22:05;98393.66;;;18.48;49.54
12799;BME280;19250;42.646;26.980;2023-03-26T08:24:38;98394.16;;;18.20;49.63
12799;BME280;19250;42.646;26.980;2023-03-26T08:27:11;98382.78;;;18.36;49.86
12799;BME280;19250;42.646;26.980;2023-03-26T08:29:41;98380.88;;;18.80;47.94
12799;BME280;19250;42.646;26.980;2023-03-26T08:32:16;98385.44;;;19.45;47.79
12799;BME280;19250;42.646;26.980;2023-03-26T08:34:43;98389.88;;;19.81;46.20
12799;BME280;19250;42.646;26.980;2023-03-26T08:37:11;98382.81;;;19.80;43.54
12799;BME280;19250;42.646;26.980;2023-03-26T08:39:39;98398.19;;;19.68;41.55
12799;BME280;19250;42.646;26.980;2023-03-26T08:42:18;98387.72;;;19.12;42.32
12799;BME280;19250;42.646;26.980;2023-03-26T08:45:00;98397.09;;;19.99;42.86
12799;BME280;19250;42.646;26.980;2023-03-26T08:47:43;98384.41;;;20.57;41.37
12799;BME280;19250;42.646;26.980;2023-03-26T08:50:24;98389.69;;;21.04;38.51
12799;BME280;19250;42.646;26.980;2023-03-26T08:53:05;98387.66;;;21.23;39.19
12799;BME280;19250;42.646;26.980;2023-03-26T08:55:49;98385.88;;;20.88;39.46
12799;BME280;19250;42.646;26.980;2023-03-26T09:01:06;98392.72;;;20.91;39.94
12799;BME280;19250;42.646;26.980;2023-03-26T09:06:40;98396.19;;;20.28;39.74
12799;BME280;19250;42.646;26.980;2023-03-26T09:09:30;98405.22;;;19.58;39.21
12799;BME280;19250;42.646;26.980;2023-03-26T09:12:27;98389.13;;;21.02;38.98
12799;BME280;19250;42.646;26.980;2023-03-26T09:15:07;98393.78;;;21.75;36.12
12799;BME280;19250;42.646;26.980;2023-03-26T09:17:49;98389.75;;;21.32;35.55
12799;BME280;19250;42.646;26.980;2023-03-26T09:20:33;98400.59;;;21.60;34.66
12799;BME280;19250;42.646;26.980;2023-03-26T09:26:03;98393.41;;;21.83;33.00
12799;BME280;19250;42.646;26.980;2023-03-26T09:28:55;98400.44;;;21.22;33.95
12799;BME280;19250;42.646;26.980;2023-03-26T09:31:46;98382.13;;;20.78;34.00
12799;BME280;19250;42.646;26.980;2023-03-26T09:34:28;98374.25;;;21.44;33.95
12799;BME280;19250;42.646;26.980;2023-03-26T09:36:56;98372.47;;;21.66;33.03
12799;BME280;19250;42.646;26.980;2023-03-26T09:39:34;98374.84;;;21.46;34.05
12799;BME280;19250;42.646;26.980;2023-03-26T09:42:10;98377.81;;;22.23;32.30
12799;BME280;19250;42.646;26.980;2023-03-26T09:44:46;98368.81;;;21.28;33.42
12799;BME280;19250;42.646;26.980;2023-03-26T09:50:25;98372.00;;;21.69;34.00
12799;BME280;19250;42.646;26.980;2023-03-26T09:53:02;98383.41;;;22.16;32.81
12799;BME280;19250;42.646;26.980;2023-03-26T09:55:55;98371.94;;;21.36;32.44
12799;BME280;19250;42.646;26.980;2023-03-26T10:01:15;98375.50;;;22.92;31.43
12799;BME280;19250;42.646;26.980;2023-03-26T10:03:47;98367.00;;;22.66;32.19
12799;BME280;19250;42.646;26.980;2023-03-26T10:12:05;98358.50;;;22.80;30.85
12799;BME280;19250;42.646;26.980;2023-03-26T10:14:37;98365.13;;;21.50;31.38
12799;BME280;19250;42.646;26.980;2023-03-26T10:17:11;98369.75;;;21.95;32.25
12799;BME280;19250;42.646;26.980;2023-03-26T10:19:52;98378.34;;;22.63;31.47
12799;BME280;19250;42.646;26.980;2023-03-26T10:22:26;98378.34;;;22.63;30.55
12799;BME280;19250;42.646;26.980;2023-03-26T10:27:47;98364.94;;;22.02;32.55
12799;BME280;19250;42.646;26.980;2023-03-26T10:30:24;98373.94;;;22.96;31.21
12799;BME280;19250;42.646;26.980;2023-03-26T10:32:58;98364.13;;;22.18;30.89
12799;BME280;19250;42.646;26.980;2023-03-26T10:35:33;98361.34;;;22.51;30.95
12799;BME280;19250;42.646;26.980;2023-03-26T10:38:08;98359.56;;;22.40;30.78
12799;BME280;19250;42.646;26.980;2023-03-26T10:40:40;98358.38;;;23.40;29.39
12799;BME280;19250;42.646;26.980;2023-03-26T10:43:16;98349.13;;;23.14;29.16
12799;BME280;19250;42.646;26.980;2023-03-26T10:48:35;98355.06;;;22.29;29.83
12799;BME280;19250;42.646;26.980;2023-03-26T10:51:18;98346.75;;;22.57;30.11
12799;BME280;19250;42.646;26.980;2023-03-26T10:53:50;98350.56;;;23.21;29.04
12799;BME280;19250;42.646;26.980;2023-03-26T10:56:21;98360.25;;;23.12;27.52
12799;BME280;19250;42.646;26.980;2023-03-26T10:58:49;98348.41;;;24.09;28.12
12799;BME280;19250;42.646;26.980;2023-03-26T11:01:19;98345.94;;;24.44;26.43
12799;BME280;19250;42.646;26.980;2023-03-26T11:03:51;98348.44;;;23.50;27.37
12799;BME280;19250;42.646;26.980;2023-03-26T11:06:25;98336.41;;;23.19;28.43
12799;BME280;19250;42.646;26.980;2023-03-26T11:08:56;98329.97;;;22.82;29.31
12799;BME280;19250;42.646;26.980;2023-03-26T11:11:28;98322.75;;;23.73;28.22
12799;BME280;19250;42.646;26.980;2023-03-26T11:13:59;98313.72;;;24.31;27.41
12799;BME280;19250;42.646;26.980;2023-03-26T11:16:31;98318.16;;;23.73;27.20
12799;BME280;19250;42.646;26.980;2023-03-26T11:19:03;98314.28;;;23.38;29.17
12799;BME280;19250;42.646;26.980;2023-03-26T11:21:35;98311.78;;;24.83;26.99
12799;BME280;19250;42.646;26.980;2023-03-26T11:26:47;98306.63;;;23.61;27.76
12799;BME280;19250;42.646;26.980;2023-03-26T11:29:26;98290.69;;;24.12;28.00
12799;BME280;19250;42.646;26.980;2023-03-26T11:31:56;98299.44;;;25.68;26.51
12799;BME280;19250;42.646;26.980;2023-03-26T11:34:31;98306.16;;;25.20;25.70
12799;BME280;19250;42.646;26.980;2023-03-26T11:37:00;98306.16;;;25.20;25.95
12799;BME280;19250;42.646;26.980;2023-03-26T11:39:40;98302.16;;;25.88;24.92
12799;BME280;19250;42.646;26.980;2023-03-26T11:42:10;98301.06;;;25.84;24.93
12799;BME280;19250;42.646;26.980;2023-03-26T11:44:40;98302.41;;;26.22;24.75
12799;BME280;19250;42.646;26.980;2023-03-26T11:47:10;98303.28;;;25.62;25.42
12799;BME280;19250;42.646;26.980;2023-03-26T11:49:41;98308.50;;;26.93;24.35
12799;BME280;19250;42.646;26.980;2023-03-26T11:52:10;98299.63;;;27.61;23.35
12799;BME280;19250;42.646;26.980;2023-03-26T11:54:39;98286.16;;;26.61;23.57
12799;BME280;19250;42.646;26.980;2023-03-26T11:57:08;98282.81;;;27.72;23.31
12799;BME280;19250;42.646;26.980;2023-03-26T11:59:37;98287.44;;;27.43;22.74
12799;BME280;19250;42.646;26.980;2023-03-26T12:02:15;98283.88;;;27.42;22.08
12799;BME280;19250;42.646;26.980;2023-03-26T12:04:44;98283.56;;;25.90;24.01
12799;BME280;19250;42.646;26.980;2023-03-26T12:07:14;98289.34;;;25.74;24.81
12799;BME280;19250;42.646;26.980;2023-03-26T12:09:48;98280.34;;;26.78;23.91
12799;BME280;19250;42.646;26.980;2023-03-26T12:12:15;98277.34;;;26.84;24.24
12799;BME280;19250;42.646;26.980;2023-03-26T12:14:43;98275.13;;;25.67;23.39
12799;BME280;19250;42.646;26.980;2023-03-26T12:17:11;98275.91;;;26.18;23.65
12799;BME280;19250;42.646;26.980;2023-03-26T12:19:39;98267.16;;;27.39;22.85
12799;BME280;19250;42.646;26.980;2023-03-26T12:24:50;98255.03;;;26.57;22.68
12799;BME280;19250;42.646;26.980;2023-03-26T12:27:26;98270.19;;;25.79;22.79
12799;BME280;19250;42.646;26.980;2023-03-26T12:29:57;98269.94;;;25.85;21.98
12799;BME280;19250;42.646;26.980;2023-03-26T12:32:25;98254.59;;;25.24;21.51
12799;BME280;19250;42.646;26.980;2023-03-26T12:34:58;98257.03;;;25.20;21.54
12799;BME280;19250;42.646;26.980;2023-03-26T12:37:32;98253.50;;;26.01;21.61
12799;BME280;19250;42.646;26.980;2023-03-26T12:40:05;98254.38;;;26.70;20.78
12799;BME280;19250;42.646;26.980;2023-03-26T12:42:38;98254.00;;;26.28;20.02
12799;BME280;19250;42.646;26.980;2023-03-26T12:45:06;98249.69;;;26.91;19.83
12799;BME280;19250;42.646;26.980;2023-03-26T12:47:38;98246.41;;;26.79;19.81
12799;BME280;19250;42.646;26.980;2023-03-26T12:50:05;98257.84;;;26.22;20.62
12799;BME280;19250;42.646;26.980;2023-03-26T12:52:39;98259.56;;;25.57;20.72
12799;BME280;19250;42.646;26.980;2023-03-26T12:55:20;98251.91;;;25.64;20.90
12799;BME280;19250;42.646;26.980;2023-03-26T12:57:50;98247.81;;;25.62;21.22
12799;BME280;19250;42.646;26.980;2023-03-26T13:00:26;98245.63;;;25.89;21.13
12799;BME280;19250;42.646;26.980;2023-03-26T13:11:30;98248.13;;;27.19;20.57
12799;BME280;19250;42.646;26.980;2023-03-26T13:14:04;98232.25;;;27.21;19.44
12799;BME280;19250;42.646;26.980;2023-03-26T13:16:50;98238.91;;;27.04;20.06
12799;BME280;19250;42.646;26.980;2023-03-26T13:19:22;98234.56;;;27.42;19.30
12799;BME280;19250;42.646;26.980;2023-03-26T13:21:56;98214.03;;;27.40;20.09
12799;BME280;19250;42.646;26.980;2023-03-26T13:24:28;98226.94;;;27.68;19.68
12799;BME280;19250;42.646;26.980;2023-03-26T13:27:11;98216.56;;;27.65;20.38
12799;BME280;19250;42.646;26.980;2023-03-26T13:29:43;98215.38;;;27.03;20.64
12799;BME280;19250;42.646;26.980;2023-03-26T13:32:16;98205.56;;;28.23;19.96
12799;BME280;19250;42.646;26.980;2023-03-26T13:34:52;98203.25;;;27.53;19.44
12799;BME280;19250;42.646;26.980;2023-03-26T13:37:22;98207.50;;;26.38;21.43
12799;BME280;19250;42.646;26.980;2023-03-26T13:39:54;98202.22;;;26.57;19.91
12799;BME280;19250;42.646;26.980;2023-03-26T13:42:33;98212.00;;;25.98;19.99